sensor_id;sensor_type;location;lat;lon;timestamp;pressure;altitude;pressure_sealevel;temperature;humidity
58373;BME280;44177;43.356;27.672;2023-04-21T00:02:23;97632.72;;;8.29;90.45
58373;BME280;44177;43.356;27.672;2023-04-21T00:04:49;97671.94;;;8.57;89.81
58373;BME280;44177;43.356;27.672;2023-04-21T00:07:15;97675.94;;;8.59;89.73
58373;BME280;44177;43.356;27.672;2023-04-21T00:09:41;97664.25;;;8.59;89.53
58373;BME280;44177;43.356;27.672;2023-04-21T00:12:07;97663.31;;;8.67;89.03
58373;BME280;44177;43.356;27.672;2023-04-21T00:14:32;97662.94;;;8.68;88.87
58373;BME280;44177;43.356;27.672;2023-04-21T00:16:58;97669.19;;;8.69;88.79
58373;BME280;44177;43.356;27.672;2023-04-21T00:19:24;97669.38;;;8.76;88.46
58373;BME280;44177;43.356;27.672;2023-04-21T00:21:50;97667.13;;;8.78;87.72
58373;BME280;44177;43.356;27.672;2023-04-21T00:24:16;97663.69;;;8.81;87.04
58373;BME280;44177;43.356;27.672;2023-04-21T00:26:41;97658.25;;;8.81;86.80
58373;BME280;44177;43.356;27.672;2023-04-21T00:29:07;97655.97;;;8.83;87.35
58373;BME280;44177;43.356;27.672;2023-04-21T00:31:32;97661.97;;;8.89;87.10
58373;BME280;44177;43.356;27.672;2023-04-21T00:33:58;97658.88;;;8.91;86.38
58373;BME280;44177;43.356;27.672;2023-04-21T00:36:23;97660.66;;;8.99;86.08
58373;BME280;44177;43.356;27.672;2023-04-21T00:38:51;97659.06;;;8.98;85.47
58373;BME280;44177;43.356;27.672;2023-04-21T00:41:16;97654.00;;;8.96;85.42
58373;BME280;44177;43.356;27.672;2023-04-21T00:46:27;97654.34;;;8.95;84.94
58373;BME280;44177;43.356;27.672;2023-04-21T00:48:53;97655.81;;;8.92;84.87
58373;BME280;44177;43.356;27.672;2023-04-21T00:51:18;97648.97;;;8.82;85.10
58373;BME280;44177;43.356;27.672;2023-04-21T00:53:44;97644.47;;;8.74;86.30
58373;BME280;44177;43.356;27.672;2023-04-21T00:56:09;97661.22;;;8.76;86.57
58373;BME280;44177;43.356;27.672;2023-04-21T00:58:35;97647.44;;;8.69;86.64
58373;BME280;44177;43.356;27.672;2023-04-21T01:01:03;97634.09;;;8.64;87.49
58373;BME280;44177;43.356;27.672;2023-04-21T01:03:29;97641.06;;;8.77;87.64
58373;BME280;44177;43.356;27.672;2023-04-21T01:05:55;97640.13;;;8.85;87.00
58373;BME280;44177;43.356;27.672;2023-04-21T01:08:21;97639.06;;;8.90;87.18
58373;BME280;44177;43.356;27.672;2023-04-21T01:10:46;97639.16;;;8.94;86.90
58373;BME280;44177;43.356;27.672;2023-04-21T01:13:12;97631.69;;;8.91;86.93
58373;BME280;44177;43.356;27.672;2023-04-21T01:15:37;97626.50;;;8.85;86.76
58373;BME280;44177;43.356;27.672;2023-04-21T01:18:03;97625.38;;;8.87;87.14
58373;BME280;44177;43.356;27.672;2023-04-21T01:20:29;97630.53;;;8.76;87.60
58373;BME280;44177;43.356;27.672;2023-04-21T01:22:54;97629.72;;;8.75;87.60
58373;BME280;44177;43.356;27.672;2023-04-21T01:25:20;97614.47;;;8.71;86.80
58373;BME280;44177;43.356;27.672;2023-04-21T01:27:50;97617.72;;;8.76;86.83
58373;BME280;44177;43.356;27.672;2023-04-21T01:30:16;97621.47;;;8.72;87.17
58373;BME280;44177;43.356;27.672;2023-04-21T01:32:42;97618.56;;;8.64;87.39
58373;BME280;44177;43.356;27.672;2023-04-21T01:35:08;97614.53;;;8.58;87.24
58373;BME280;44177;43.356;27.672;2023-04-21T01:37:33;97617.34;;;8.62;86.85
58373;BME280;44177;43.356;27.672;2023-04-21T01:40:02;97604.47;;;8.46;87.86
58373;BME280;44177;43.356;27.672;2023-04-21T01:42:30;97615.81;;;8.48;88.17
58373;BME280;44177;43.356;27.672;2023-04-21T01:44:56;97621.91;;;8.45;88.52
58373;BME280;44177;43.356;27.672;2023-04-21T01:47:23;97604.03;;;8.44;87.75
58373;BME280;44177;43.356;27.672;2023-04-21T01:49:49;97607.09;;;8.43;87.54
58373;BME280;44177;43.356;27.672;2023-04-21T01:52:15;97609.00;;;8.42;87.67
58373;BME280;44177;43.356;27.672;2023-04-21T01:54:40;97605.22;;;8.31;88.22
58373;BME280;44177;43.356;27.672;2023-04-21T01:57:06;97611.03;;;8.45;88.12
58373;BME280;44177;43.356;27.672;2023-04-21T01:59:31;97608.25;;;8.29;88.29
58373;BME280;44177;43.356;27.672;2023-04-21T02:01:57;97605.03;;;8.24;88.77
58373;BME280;44177;43.356;27.672;2023-04-21T02:04:22;97602.06;;;8.29;89.36
58373;BME280;44177;43.356;27.672;2023-04-21T02:06:48;97606.09;;;8.35;88.37
58373;BME280;44177;43.356;27.672;2023-04-21T02:09:13;97597.06;;;8.31;88.63
58373;BME280;44177;43.356;27.672;2023-04-21T02:11:39;97600.22;;;8.33;88.28
58373;BME280;44177;43.356;27.672;2023-04-21T02:14:05;97596.81;;;8.36;88.59
58373;BME280;44177;43.356;27.672;2023-04-21T02:16:31;97606.91;;;8.35;88.29
58373;BME280;44177;43.356;27.672;2023-04-21T02:18:56;97586.03;;;8.40;87.00
58373;BME280;44177;43.356;27.672;2023-04-21T02:21:22;97611.00;;;8.58;86.48
58373;BME280;44177;43.356;27.672;2023-04-21T02:23:49;97606.03;;;8.60;86.28
58373;BME280;44177;43.356;27.672;2023-04-21T02:26:15;97598.72;;;8.48;86.18
58373;BME280;44177;43.356;27.672;2023-04-21T02:28:41;97608.19;;;8.54;85.26
58373;BME280;44177;43.356;27.672;2023-04-21T02:31:07;97570.31;;;8.33;85.40
58373;BME280;44177;43.356;27.672;2023-04-21T02:33:32;97584.53;;;8.42;85.46
58373;BME280;44177;43.356;27.672;2023-04-21T02:35:58;97586.03;;;8.40;85.94
58373;BME280;44177;43.356;27.672;2023-04-21T02:38:23;97594.97;;;8.52;85.56
58373;BME280;44177;43.356;27.672;2023-04-21T02:40:48;97584.44;;;8.51;85.79
58373;BME280;44177;43.356;27.672;2023-04-21T02:43:15;97587.25;;;8.55;85.68
58373;BME280;44177;43.356;27.672;2023-04-21T02:45:40;97586.34;;;8.50;86.42
58373;BME280;44177;43.356;27.672;2023-04-21T02:48:06;97578.66;;;8.52;86.43
58373;BME280;44177;43.356;27.672;2023-04-21T02:50:31;97584.09;;;8.52;86.01
58373;BME280;44177;43.356;27.672;2023-04-21T02:52:57;97573.88;;;8.49;85.48
58373;BME280;44177;43.356;27.672;2023-04-21T02:55:23;97577.09;;;8.39;85.63
58373;BME280;44177;43.356;27.672;2023-04-21T02:57:49;97587.16;;;8.38;85.46
58373;BME280;44177;43.356;27.672;2023-04-21T03:00:14;97584.63;;;8.30;86.12
58373;BME280;44177;43.356;27.672;2023-04-21T03:02:40;97581.53;;;8.31;86.53
58373;BME280;44177;43.356;27.672;2023-04-21T03:05:06;97584.13;;;8.40;86.51
58373;BME280;44177;43.356;27.672;2023-04-21T03:07:31;97585.78;;;8.45;86.09
58373;BME280;44177;43.356;27.672;2023-04-21T03:09:57;97570.84;;;8.38;85.63
58373;BME280;44177;43.356;27.672;2023-04-21T03:12:22;97560.59;;;8.32;85.43
58373;BME280;44177;43.356;27.672;2023-04-21T03:14:48;97571.66;;;8.39;85.54
58373;BME280;44177;43.356;27.672;2023-04-21T03:17:13;97580.22;;;8.53;85.47
58373;BME280;44177;43.356;27.672;2023-04-21T03:19:39;97567.78;;;8.52;85.27
58373;BME280;44177;43.356;27.672;2023-04-21T03:22:05;97560.75;;;8.51;85.19
58373;BME280;44177;43.356;27.672;2023-04-21T03:24:31;97583.41;;;8.56;85.13
58373;BME280;44177;43.356;27.672;2023-04-21T03:26:56;97570.94;;;8.55;84.43
58373;BME280;44177;43.356;27.672;2023-04-21T03:29:22;97561.56;;;8.52;83.94
58373;BME280;44177;43.356;27.672;2023-04-21T03:31:48;97571.91;;;8.62;83.72
58373;BME280;44177;43.356;27.672;2023-04-21T03:34:13;97567.28;;;8.63;83.42
58373;BME280;44177;43.356;27.672;2023-04-21T03:36:39;97575.16;;;8.68;83.21
58373;BME280;44177;43.356;27.672;2023-04-21T03:39:05;97569.81;;;8.72;82.70
58373;BME280;44177;43.356;27.672;2023-04-21T03:41:34;97569.13;;;8.75;82.57
58373;BME280;44177;43.356;27.672;2023-04-21T03:43:59;97583.31;;;8.84;82.33
58373;BME280;44177;43.356;27.672;2023-04-21T03:46:25;97579.13;;;8.87;82.21
58373;BME280;44177;43.356;27.672;2023-04-21T03:48:50;97582.72;;;8.91;82.03
58373;BME280;44177;43.356;27.672;2023-04-21T03:51:16;97582.03;;;8.94;82.43
58373;BME280;44177;43.356;27.672;2023-04-21T03:53:41;97577.00;;;8.80;82.43
58373;BME280;44177;43.356;27.672;2023-04-21T03:56:07;97584.91;;;8.85;82.78
58373;BME280;44177;43.356;27.672;2023-04-21T03:58:33;97590.88;;;8.91;82.83
58373;BME280;44177;43.356;27.672;2023-04-21T04:00:59;97593.69;;;8.94;83.25
58373;BME280;44177;43.356;27.672;2023-04-21T04:03:25;97600.63;;;8.92;83.20
58373;BME280;44177;43.356;27.672;2023-04-21T04:05:50;97605.72;;;8.93;83.19
58373;BME280;44177;43.356;27.672;2023-04-21T04:08:15;97603.00;;;8.93;83.49
58373;BME280;44177;43.356;27.672;2023-04-21T04:10:41;97595.97;;;8.92;83.44
58373;BME280;44177;43.356;27.672;2023-04-21T04:13:06;97601.00;;;8.90;83.37
58373;BME280;44177;43.356;27.672;2023-04-21T04:15:32;97588.00;;;8.83;83.19
58373;BME280;44177;43.356;27.672;2023-04-21T04:17:57;97606.06;;;8.92;83.31
58373;BME280;44177;43.356;27.672;2023-04-21T04:20:23;97614.41;;;8.99;84.05
58373;BME280;44177;43.356;27.672;2023-04-21T04:22:48;97620.28;;;9.01;84.11
58373;BME280;44177;43.356;27.672;2023-04-21T04:25:14;97612.38;;;8.96;84.59
58373;BME280;44177;43.356;27.672;2023-04-21T04:27:41;97613.97;;;8.97;84.10
58373;BME280;44177;43.356;27.672;2023-04-21T04:30:08;97612.66;;;9.07;83.58
58373;BME280;44177;43.356;27.672;2023-04-21T04:32:34;97617.13;;;8.99;83.97
58373;BME280;44177;43.356;27.672;2023-04-21T04:35:03;97613.72;;;9.02;83.50
58373;BME280;44177;43.356;27.672;2023-04-21T04:37:28;97609.88;;;9.03;83.54
58373;BME280;44177;43.356;27.672;2023-04-21T04:39:54;97625.09;;;9.08;83.37
58373;BME280;44177;43.356;27.672;2023-04-21T04:42:19;97615.03;;;9.08;83.89
58373;BME280;44177;43.356;27.672;2023-04-21T04:44:45;97627.22;;;9.14;84.01
58373;BME280;44177;43.356;27.672;2023-04-21T04:47:11;97627.22;;;9.14;84.40
58373;BME280;44177;43.356;27.672;2023-04-21T04:49:37;97630.47;;;9.20;84.71
58373;BME280;44177;43.356;27.672;2023-04-21T04:52:03;97613.63;;;9.14;84.54
58373;BME280;44177;43.356;27.672;2023-04-21T04:54:28;97617.66;;;9.21;84.15
58373;BME280;44177;43.356;27.672;2023-04-21T04:56:54;97624.94;;;9.32;83.41
58373;BME280;44177;43.356;27.672;2023-04-21T04:59:20;97622.31;;;9.36;83.21
58373;BME280;44177;43.356;27.672;2023-04-21T05:01:46;97623.19;;;9.40;83.49
58373;BME280;44177;43.356;27.672;2023-04-21T05:04:11;97633.97;;;9.53;84.21
58373;BME280;44177;43.356;27.672;2023-04-21T05:06:40;97625.81;;;9.53;84.13
58373;BME280;44177;43.356;27.672;2023-04-21T05:09:06;97634.13;;;9.60;83.54
58373;BME280;44177;43.356;27.672;2023-04-21T05:11:31;97626.25;;;9.55;83.97
58373;BME280;44177;43.356;27.672;2023-04-21T05:13:57;97625.97;;;9.60;83.72
58373;BME280;44177;43.356;27.672;2023-04-21T05:16:22;97615.06;;;9.60;83.84
58373;BME280;44177;43.356;27.672;2023-04-21T05:18:48;97615.84;;;9.76;83.40
58373;BME280;44177;43.356;27.672;2023-04-21T05:21:22;97627.47;;;9.93;83.72
58373;BME280;44177;43.356;27.672;2023-04-21T05:23:48;97620.75;;;9.87;82.34
58373;BME280;44177;43.356;27.672;2023-04-21T05:26:14;97615.91;;;9.80;81.88
58373;BME280;44177;43.356;27.672;2023-04-21T05:28:39;97611.13;;;9.73;82.53
58373;BME280;44177;43.356;27.672;2023-04-21T05:31:04;97620.38;;;9.88;83.07
58373;BME280;44177;43.356;27.672;2023-04-21T05:33:30;97619.59;;;10.07;81.74
58373;BME280;44177;43.356;27.672;2023-04-21T05:35:56;97612.09;;;10.20;81.87
58373;BME280;44177;43.356;27.672;2023-04-21T05:38:21;97623.28;;;10.35;80.62
58373;BME280;44177;43.356;27.672;2023-04-21T05:40:53;97627.28;;;10.37;80.29
58373;BME280;44177;43.356;27.672;2023-04-21T05:43:20;97627.69;;;10.39;80.83
58373;BME280;44177;43.356;27.672;2023-04-21T05:45:46;97625.59;;;10.33;81.82
58373;BME280;44177;43.356;27.672;2023-04-21T05:48:12;97645.19;;;10.38;82.53
58373;BME280;44177;43.356;27.672;2023-04-21T05:50:37;97647.91;;;10.19;82.40
58373;BME280;44177;43.356;27.672;2023-04-21T05:53:03;97642.94;;;10.24;82.40
58373;BME280;44177;43.356;27.672;2023-04-21T05:55:28;97621.19;;;10.08;81.79
58373;BME280;44177;43.356;27.672;2023-04-21T05:57:54;97668.25;;;10.05;82.45
58373;BME280;44177;43.356;27.672;2023-04-21T06:00:19;97667.94;;;9.75;83.65
58373;BME280;44177;43.356;27.672;2023-04-21T06:02:45;97688.59;;;9.60;83.84
58373;BME280;44177;43.356;27.672;2023-04-21T06:05:10;97688.78;;;9.51;84.59
58373;BME280;44177;43.356;27.672;2023-04-21T06:07:36;97694.03;;;9.28;85.14
58373;BME280;44177;43.356;27.672;2023-04-21T06:10:02;97686.66;;;9.12;85.85
58373;BME280;44177;43.356;27.672;2023-04-21T06:12:28;97694.78;;;8.96;86.44
58373;BME280;44177;43.356;27.672;2023-04-21T06:14:53;97689.75;;;8.82;86.86
58373;BME280;44177;43.356;27.672;2023-04-21T06:17:22;97701.25;;;8.76;87.23
58373;BME280;44177;43.356;27.672;2023-04-21T06:19:48;97692.44;;;8.66;86.05
58373;BME280;44177;43.356;27.672;2023-04-21T06:22:18;97698.94;;;8.49;85.88
58373;BME280;44177;43.356;27.672;2023-04-21T06:24:45;97712.88;;;8.48;85.79
58373;BME280;44177;43.356;27.672;2023-04-21T06:27:10;97704.38;;;8.49;86.15
58373;BME280;44177;43.356;27.672;2023-04-21T06:29:39;97709.91;;;8.53;85.70
58373;BME280;44177;43.356;27.672;2023-04-21T06:32:08;97700.91;;;8.36;85.16
58373;BME280;44177;43.356;27.672;2023-04-21T06:34:34;97707.78;;;8.46;85.90
58373;BME280;44177;43.356;27.672;2023-04-21T06:37:00;97718.88;;;8.41;85.46
58373;BME280;44177;43.356;27.672;2023-04-21T06:39:26;97696.72;;;8.27;84.84
58373;BME280;44177;43.356;27.672;2023-04-21T06:41:51;97714.91;;;8.38;85.87
58373;BME280;44177;43.356;27.672;2023-04-21T06:44:17;97699.44;;;8.27;86.66
58373;BME280;44177;43.356;27.672;2023-04-21T06:46:43;97721.50;;;8.25;87.80
58373;BME280;44177;43.356;27.672;2023-04-21T06:49:08;97713.94;;;8.18;88.55
58373;BME280;44177;43.356;27.672;2023-04-21T06:51:34;97714.50;;;8.24;88.45
58373;BME280;44177;43.356;27.672;2023-04-21T06:54:00;97708.50;;;8.18;88.29
58373;BME280;44177;43.356;27.672;2023-04-21T06:56:29;97723.22;;;8.30;88.74
58373;BME280;44177;43.356;27.672;2023-04-21T06:58:55;97722.50;;;8.33;89.38
58373;BME280;44177;43.356;27.672;2023-04-21T07:01:21;97727.03;;;8.53;89.54
58373;BME280;44177;43.356;27.672;2023-04-21T07:03:51;97725.22;;;8.45;89.33
58373;BME280;44177;43.356;27.672;2023-04-21T07:06:17;97719.66;;;8.42;89.15
58373;BME280;44177;43.356;27.672;2023-04-21T07:08:42;97717.50;;;8.60;89.26
58373;BME280;44177;43.356;27.672;2023-04-21T07:11:08;97718.25;;;8.73;89.06
58373;BME280;44177;43.356;27.672;2023-04-21T07:13:33;97720.31;;;8.92;89.27
58373;BME280;44177;43.356;27.672;2023-04-21T07:15:59;97714.69;;;9.29;88.46
58373;BME280;44177;43.356;27.672;2023-04-21T07:18:24;97709.88;;;9.70;87.53
58373;BME280;44177;43.356;27.672;2023-04-21T07:20:50;97708.09;;;9.94;84.51
58373;BME280;44177;43.356;27.672;2023-04-21T07:23:16;97711.94;;;9.93;84.92
58373;BME280;44177;43.356;27.672;2023-04-21T07:25:42;97708.97;;;9.98;84.37
58373;BME280;44177;43.356;27.672;2023-04-21T07:28:08;97706.03;;;10.07;84.02
58373;BME280;44177;43.356;27.672;2023-04-21T07:30:33;97702.56;;;10.26;83.99
58373;BME280;44177;43.356;27.672;2023-04-21T07:32:59;97694.84;;;10.48;81.55
58373;BME280;44177;43.356;27.672;2023-04-21T07:35:25;97689.63;;;10.78;81.06
58373;BME280;44177;43.356;27.672;2023-04-21T07:37:50;97682.59;;;11.20;79.29
58373;BME280;44177;43.356;27.672;2023-04-21T07:40:16;97691.09;;;11.61;77.59
58373;BME280;44177;43.356;27.672;2023-04-21T07:42:41;97692.72;;;11.66;76.30
58373;BME280;44177;43.356;27.672;2023-04-21T07:45:07;97692.47;;;11.75;74.94
58373;BME280;44177;43.356;27.672;2023-04-21T07:47:33;97686.91;;;11.94;73.39
58373;BME280;44177;43.356;27.672;2023-04-21T07:49:58;97695.97;;;11.98;71.43
58373;BME280;44177;43.356;27.672;2023-04-21T07:52:24;97697.00;;;11.90;70.81
58373;BME280;44177;43.356;27.672;2023-04-21T07:54:50;97692.13;;;12.03;73.01
58373;BME280;44177;43.356;27.672;2023-04-21T07:57:16;97678.91;;;11.82;70.71
58373;BME280;44177;43.356;27.672;2023-04-21T07:59:41;97700.88;;;11.89;72.55
58373;BME280;44177;43.356;27.672;2023-04-21T08:02:07;97700.00;;;11.81;72.19
58373;BME280;44177;43.356;27.672;2023-04-21T08:04:32;97697.47;;;11.96;72.49
58373;BME280;44177;43.356;27.672;2023-04-21T08:06:58;97698.81;;;12.06;71.89
58373;BME280;44177;43.356;27.672;2023-04-21T08:09:24;97688.31;;;12.08;69.53
58373;BME280;44177;43.356;27.672;2023-04-21T08:11:49;97687.09;;;12.05;70.57
58373;BME280;44177;43.356;27.672;2023-04-21T08:14:15;97698.16;;;11.89;68.98
58373;BME280;44177;43.356;27.672;2023-04-21T08:16:40;97689.13;;;11.85;69.78
58373;BME280;44177;43.356;27.672;2023-04-21T08:19:07;97689.63;;;11.67;69.57
58373;BME280;44177;43.356;27.672;2023-04-21T08:21:33;97691.97;;;11.69;71.02
58373;BME280;44177;43.356;27.672;2023-04-21T08:23:59;97691.63;;;11.71;71.88
58373;BME280;44177;43.356;27.672;2023-04-21T08:26:25;97677.06;;;11.63;68.64
58373;BME280;44177;43.356;27.672;2023-04-21T08:28:50;97689.22;;;11.92;70.23
58373;BME280;44177;43.356;27.672;2023-04-21T08:31:17;97684.94;;;12.18;69.57
58373;BME280;44177;43.356;27.672;2023-04-21T08:33:43;97682.38;;;12.32;68.20
58373;BME280;44177;43.356;27.672;2023-04-21T08:36:09;97686.53;;;12.53;66.09
58373;BME280;44177;43.356;27.672;2023-04-21T08:38:36;97681.91;;;12.91;66.70
58373;BME280;44177;43.356;27.672;2023-04-21T08:41:02;97668.56;;;13.24;65.65
58373;BME280;44177;43.356;27.672;2023-04-21T08:43:28;97674.81;;;13.66;63.20
58373;BME280;44177;43.356;27.672;2023-04-21T08:45:55;97677.47;;;14.14;62.42
58373;BME280;44177;43.356;27.672;2023-04-21T08:48:21;97681.88;;;14.30;60.23
58373;BME280;44177;43.356;27.672;2023-04-21T08:50:52;97683.81;;;14.29;60.89
58373;BME280;44177;43.356;27.672;2023-04-21T08:53:18;97683.41;;;14.24;61.45
58373;BME280;44177;43.356;27.672;2023-04-21T08:55:45;97674.63;;;14.66;62.15
58373;BME280;44177;43.356;27.672;2023-04-21T08:58:11;97666.50;;;15.21;59.58
58373;BME280;44177;43.356;27.672;2023-04-21T09:00:37;97660.28;;;15.74;57.20
58373;BME280;44177;43.356;27.672;2023-04-21T09:03:05;97669.91;;;16.58;55.73
58373;BME280;44177;43.356;27.672;2023-04-21T09:05:33;97662.75;;;16.76;53.26
58373;BME280;44177;43.356;27.672;2023-04-21T09:08:10;97639.22;;;16.60;54.02
58373;BME280;44177;43.356;27.672;2023-04-21T09:11:01;97653.22;;;16.98;51.60
58373;BME280;44177;43.356;27.672;2023-04-21T09:13:32;97647.75;;;16.87;51.44
58373;BME280;44177;43.356;27.672;2023-04-21T09:15:59;97662.59;;;17.08;49.66
58373;BME280;44177;43.356;27.672;2023-04-21T09:18:27;97657.56;;;16.96;50.37
58373;BME280;44177;43.356;27.672;2023-04-21T09:21:05;97667.09;;;16.69;51.18
58373;BME280;44177;43.356;27.672;2023-04-21T09:23:31;97651.66;;;16.90;50.28
58373;BME280;44177;43.356;27.672;2023-04-21T09:25:56;97645.53;;;17.31;48.99
58373;BME280;44177;43.356;27.672;2023-04-21T09:28:22;97655.56;;;17.56;50.83
58373;BME280;44177;43.356;27.672;2023-04-21T09:30:53;97658.28;;;17.63;48.50
58373;BME280;44177;43.356;27.672;2023-04-21T09:33:19;97642.06;;;17.69;48.49
58373;BME280;44177;43.356;27.672;2023-04-21T09:35:44;97661.56;;;17.44;47.16
58373;BME280;44177;43.356;27.672;2023-04-21T09:38:11;97656.88;;;17.37;48.46
58373;BME280;44177;43.356;27.672;2023-04-21T09:40:37;97642.50;;;17.15;49.13
58373;BME280;44177;43.356;27.672;2023-04-21T09:43:03;97653.03;;;17.27;48.57
58373;BME280;44177;43.356;27.672;2023-04-21T09:45:28;97655.97;;;16.98;49.50
58373;BME280;44177;43.356;27.672;2023-04-21T09:47:56;97668.22;;;16.83;49.81
58373;BME280;44177;43.356;27.672;2023-04-21T09:50:23;97662.91;;;16.32;49.68
58373;BME280;44177;43.356;27.672;2023-04-21T09:52:50;97658.28;;;15.97;50.35
58373;BME280;44177;43.356;27.672;2023-04-21T09:55:17;97670.88;;;15.65;51.26
58373;BME280;44177;43.356;27.672;2023-04-21T09:57:46;97673.22;;;15.27;51.23
58373;BME280;44177;43.356;27.672;2023-04-21T10:00:13;97666.00;;;14.68;52.53
58373;BME280;44177;43.356;27.672;2023-04-21T10:02:44;97661.16;;;14.43;56.08
58373;BME280;44177;43.356;27.672;2023-04-21T10:05:12;97679.59;;;14.46;56.06
58373;BME280;44177;43.356;27.672;2023-04-21T10:07:38;97670.47;;;14.24;55.65
58373;BME280;44177;43.356;27.672;2023-04-21T10:10:06;97669.38;;;14.36;56.22
58373;BME280;44177;43.356;27.672;2023-04-21T10:12:32;97678.81;;;14.49;56.18
58373;BME280;44177;43.356;27.672;2023-04-21T10:15:03;97675.34;;;14.56;55.30
58373;BME280;44177;43.356;27.672;2023-04-21T10:17:33;97680.78;;;14.49;55.32
58373;BME280;44177;43.356;27.672;2023-04-21T10:19:59;97676.84;;;14.43;55.26
58373;BME280;44177;43.356;27.672;2023-04-21T10:22:31;97677.06;;;14.97;54.73
58373;BME280;44177;43.356;27.672;2023-04-21T10:24:58;97679.50;;;15.35;52.55
58373;BME280;44177;43.356;27.672;2023-04-21T10:27:40;97635.50;;;15.60;52.80
58373;BME280;44177;43.356;27.672;2023-04-21T10:30:21;97668.91;;;15.91;50.30
58373;BME280;44177;43.356;27.672;2023-04-21T10:32:47;97648.41;;;16.21;49.23
58373;BME280;44177;43.356;27.672;2023-04-21T10:35:15;97664.50;;;16.30;48.72
58373;BME280;44177;43.356;27.672;2023-04-21T10:37:42;97646.00;;;16.34;50.77
58373;BME280;44177;43.356;27.672;2023-04-21T10:40:34;97658.09;;;16.62;49.62
58373;BME280;44177;43.356;27.672;2023-04-21T10:43:02;97664.91;;;16.28;48.60
58373;BME280;44177;43.356;27.672;2023-04-21T10:45:29;97671.66;;;15.84;49.55
58373;BME280;44177;43.356;27.672;2023-04-21T10:47:58;97664.56;;;15.39;52.05
58373;BME280;44177;43.356;27.672;2023-04-21T10:50:30;97670.06;;;15.14;50.73
58373;BME280;44177;43.356;27.672;2023-04-21T10:53:09;97687.66;;;14.95;52.71
58373;BME280;44177;43.356;27.672;2023-04-21T10:55:35;97690.66;;;14.61;52.83
58373;BME280;44177;43.356;27.672;2023-04-21T10:58:06;97672.84;;;14.33;53.29
58373;BME280;44177;43.356;27.672;2023-04-21T11:00:33;97686.78;;;13.99;54.59
58373;BME280;44177;43.356;27.672;2023-04-21T11:03:04;97697.59;;;13.77;54.44
58373;BME280;44177;43.356;27.672;2023-04-21T11:05:35;97691.66;;;13.68;55.58
58373;BME280;44177;43.356;27.672;2023-04-21T11:08:13;97701.28;;;13.51;57.97
58373;BME280;44177;43.356;27.672;2023-04-21T11:10:51;97708.66;;;13.43;59.20
58373;BME280;44177;43.356;27.672;2023-04-21T11:13:19;97701.03;;;13.25;59.03
58373;BME280;44177;43.356;27.672;2023-04-21T11:16:01;97701.88;;;13.30;58.55
58373;BME280;44177;43.356;27.672;2023-04-21T11:18:32;97691.88;;;13.48;58.95
58373;BME280;44177;43.356;27.672;2023-04-21T11:21:15;97700.91;;;13.49;57.39
58373;BME280;44177;43.356;27.672;2023-04-21T11:24:08;97693.63;;;13.71;55.59
58373;BME280;44177;43.356;27.672;2023-04-21T11:26:35;97680.53;;;14.02;54.48
58373;BME280;44177;43.356;27.672;2023-04-21T11:29:04;97692.50;;;14.42;54.77
58373;BME280;44177;43.356;27.672;2023-04-21T11:31:30;97692.00;;;15.03;53.65
58373;BME280;44177;43.356;27.672;2023-04-21T11:33:58;97669.28;;;15.64;51.33
58373;BME280;44177;43.356;27.672;2023-04-21T11:36:23;97673.19;;;16.17;50.55
58373;BME280;44177;43.356;27.672;2023-04-21T11:38:49;97673.19;;;16.06;50.34
58373;BME280;44177;43.356;27.672;2023-04-21T11:41:22;97670.09;;;15.86;50.33
58373;BME280;44177;43.356;27.672;2023-04-21T11:43:48;97659.81;;;16.16;50.28
58373;BME280;44177;43.356;27.672;2023-04-21T11:46:22;97666.59;;;16.96;49.94
58373;BME280;44177;43.356;27.672;2023-04-21T11:49:06;97654.03;;;16.88;45.27
58373;BME280;44177;43.356;27.672;2023-04-21T11:51:33;97669.25;;;16.29;45.82
58373;BME280;44177;43.356;27.672;2023-04-21T11:53:59;97653.66;;;16.82;44.83
58373;BME280;44177;43.356;27.672;2023-04-21T11:56:25;97662.50;;;17.23;44.80
58373;BME280;44177;43.356;27.672;2023-04-21T11:58:51;97654.31;;;17.64;43.13
58373;BME280;44177;43.356;27.672;2023-04-21T12:01:17;97656.13;;;17.36;42.51
58373;BME280;44177;43.356;27.672;2023-04-21T12:03:53;97668.19;;;18.03;43.55
58373;BME280;44177;43.356;27.672;2023-04-21T12:06:21;97673.53;;;18.21;41.60
58373;BME280;44177;43.356;27.672;2023-04-21T12:08:46;97675.41;;;17.86;42.39
58373;BME280;44177;43.356;27.672;2023-04-21T12:11:15;97676.97;;;17.41;44.41
58373;BME280;44177;43.356;27.672;2023-04-21T12:13:41;97687.91;;;16.78;42.86
58373;BME280;44177;43.356;27.672;2023-04-21T12:16:06;97685.75;;;16.33;44.29
58373;BME280;44177;43.356;27.672;2023-04-21T12:18:32;97690.09;;;16.05;44.15
58373;BME280;44177;43.356;27.672;2023-04-21T12:21:00;97708.16;;;15.59;45.96
58373;BME280;44177;43.356;27.672;2023-04-21T12:23:25;97684.56;;;15.22;45.27
58373;BME280;44177;43.356;27.672;2023-04-21T12:25:51;97702.28;;;15.39;46.28
58373;BME280;44177;43.356;27.672;2023-04-21T12:28:16;97695.56;;;15.25;48.49
58373;BME280;44177;43.356;27.672;2023-04-21T12:30:42;97685.78;;;15.71;47.25
58373;BME280;44177;43.356;27.672;2023-04-21T12:33:07;97682.66;;;15.51;45.87
58373;BME280;44177;43.356;27.672;2023-04-21T12:35:33;97697.16;;;15.41;45.93
58373;BME280;44177;43.356;27.672;2023-04-21T12:37:59;97686.56;;;15.36;46.96
58373;BME280;44177;43.356;27.672;2023-04-21T12:40:25;97682.66;;;16.02;49.32
58373;BME280;44177;43.356;27.672;2023-04-21T12:42:51;97665.91;;;16.70;47.51
58373;BME280;44177;43.356;27.672;2023-04-21T12:45:16;97674.69;;;16.44;47.17
58373;BME280;44177;43.356;27.672;2023-04-21T12:47:42;97673.19;;;16.21;46.63
58373;BME280;44177;43.356;27.672;2023-04-21T12:50:08;97678.66;;;16.35;46.05
58373;BME280;44177;43.356;27.672;2023-04-21T12:52:35;97676.22;;;16.59;45.75
58373;BME280;44177;43.356;27.672;2023-04-21T12:55:00;97681.31;;;17.39;44.84
58373;BME280;44177;43.356;27.672;2023-04-21T12:57:26;97664.03;;;17.80;44.01